Nearby METAR Reports

 

EGNR - Hawarden (aut), United Kingdom
Distance from station: ESE 33mi, 53km
Updated: 18/11/2017 10:20
Partly cloudy
Partly cloudy
 Wind from W
Wind: W 10 mph , 17 km/h
Temperature: 10°C
Wind Chill: 8°C
Dew Point: 5°C
Humidity: 71%
Barometer: 1022 hPa
Clouds: Partly cloudy
Visibility: 6 miles , 10 km
Cloud details: Few Clouds 671 m
Partly cloudy 1219 m
2017/11/18 10:20 EGNR 181020Z 28009KT 9999 FEW022 SCT040 10/05 Q1022
EGOV - Valley Raf, United Kingdom
Distance from station: W 33mi, 53km
Updated: 18/11/2017 09:50
Mostly cloudy
Mostly cloudy
 Wind from WNW
Wind: WNW 6 mph , 9 km/h
Temperature: 10°C
Wind Chill: 9°C
Dew Point: 6°C
Humidity: 76%
Barometer: 1022 hPa
Clouds: Mostly cloudy
Visibility: 6 miles , 10 km
Cloud details: Mostly cloudy 1829 m
2017/11/18 09:50 EGOV 180950Z AUTO 29005KT 9999 BKN060/// 10/06 Q1022
 
EGGP - Liverpool Airpor, United Kingdom
Distance from station: E 37mi, 59km
Updated: 18/11/2017 10:20
Partly cloudy
Partly cloudy
 Wind from WNW
Wind: WNW 16 mph , 26 km/h
Temperature: 10°C
Wind Chill: 7°C
Dew Point: 6°C
Humidity: 76%
Barometer: 1021 hPa
Clouds: Partly cloudy
Visibility: 6 miles , 10 km
Cloud details: Few Clouds 914 m
Partly cloudy 1097 m
2017/11/18 10:20 EGGP 181020Z 29014KT 9999 FEW030 SCT036 10/06 Q1021
EGNH - Blackpool Airpor, United Kingdom
Distance from station: NE 44mi, 72km
Updated: 18/11/2017 10:20
Nearby showers, Partly cloudy
Nearby showers, Partly cloudy
 Wind from WNW
Wind: WNW 17 mph , 28 km/h
Temperature: 10°C
Wind Chill: 7°C
Dew Point: 6°C
Humidity: 76%
Barometer: 1020 hPa
Summary: Nearby Showers
Clouds: Partly cloudy
Visibility: 6 miles , 10 km
Cloud details: Partly cloudy 244 m
Partly cloudy 823 m
2017/11/18 10:20 EGNH 181020Z 29015KT 9999 VCSH SCT008 SCT027 10/06 Q1020
 
EGNO - Wharton, United Kingdom
Distance from station: NE 47mi, 76km
Updated: 17/11/2017 16:50
NOT Current
Mostly cloudy
Mostly cloudy
 Wind from W
Wind: W 13 mph , 20 km/h
Temperature: 9°C
Wind Chill: 6°C
Dew Point: 3°C
Humidity: 66%
Barometer: 1026 hPa
Clouds: Mostly cloudy
Visibility: 6 miles , 10 km
Cloud details: Few Clouds 1067 m
Mostly cloudy 1433 m
2017/11/17 16:50 EGNO 171650Z 27011KT 9999 FEW035 BKN047 09/03 Q1026
EGOS - Shawbury Raf, United Kingdom
Distance from station: SE 56mi, 89km
Updated: 18/11/2017 09:50
Overcast
Overcast
 Wind from WNW
Wind: WNW 7 mph , 11 km/h
Temperature: 6°C
Wind Chill: 4°C
Dew Point: 5°C
Humidity: 93%
Barometer: 1022 hPa
Clouds: Overcast
Visibility: 6 miles , 10 km
Cloud details: Overcast 792 m
2017/11/18 09:50 EGOS 180950Z AUTO 30006KT 9999 OVC026/// 06/05 Q1022 RERA
 
EGCC - Manchester Intl, United Kingdom
Distance from station: E 61mi, 98km
Updated: 18/11/2017 10:20
Mostly cloudy
Mostly cloudy
 Wind from W
Wind: W 9 mph , 15 km/h
Temperature: 9°C
Wind Chill: 7°C
Dew Point: 4°C
Humidity: 71%
Barometer: 1021 hPa
Clouds: Mostly cloudy
Visibility: 6 miles , 10 km
Cloud details: Few Clouds 945 m
Mostly cloudy 1189 m
2017/11/18 10:20 EGCC 181020Z AUTO 27008KT 240V300 9999 FEW031 BKN039 09/04 Q1021 NOSIG
EGNS - Isle Of Man/Rona, United Kingdom
Distance from station: NW 66mi, 107km
Updated: 18/11/2017 10:20
Partly cloudy
Partly cloudy
 Wind from W
Wind: W 9 mph , 15 km/h
Temperature: 9°C
Wind Chill: 7°C
Dew Point: 5°C
Humidity: 76%
Barometer: 1021 hPa
Clouds: Partly cloudy
Visibility: 6 miles , 10 km
Cloud details: Few Clouds 610 m
Partly cloudy 1463 m
2017/11/18 10:20 EGNS 181020Z 28008KT 250V310 9999 FEW020 SCT048 09/05 Q1021 NOSIG
 
EGNM - Leeds And Bradfo, United Kingdom
Distance from station: ENE 95mi, 153km
Updated: 18/11/2017 10:20
Partly cloudy
Partly cloudy
 Wind from WNW
Wind: WNW 14 mph , 22 km/h
Temperature: 7°C
Wind Chill: 4°C
Dew Point: 4°C
Humidity: 81%
Barometer: 1019 hPa
Clouds: Partly cloudy
Visibility: 6 miles , 10 km
Cloud details: Few Clouds 579 m
Partly cloudy 1097 m
2017/11/18 10:20 EGNM 181020Z 30012KT 9999 FEW019 SCT036 07/04 Q1019
EGBB - Birmingham Airpo, United Kingdom
Distance from station: ESE 100mi, 161km
Updated: 18/11/2017 10:20
Light drizzle, Mostly cloudy
Light drizzle, Mostly cloudy
 Wind from WSW
Wind: WSW 7 mph , 11 km/h
Temperature: 7°C
Wind Chill: 5°C
Dew Point: 7°C
Humidity: 100%
Barometer: 1022 hPa
Summary: Light Drizzle
Clouds: Mostly cloudy
Visibility: 6 miles , 10 km
Cloud details: Partly cloudy 457 m
Mostly cloudy 1463 m
2017/11/18 10:20 EGBB 181020Z 25006KT 9999 6000W -DZ SCT015 BKN048 07/07 Q1022